Latest Weather Observations for Dwellingup

IDW60801

Issued at 10:33 am WST Sunday 24 July 2016 (issued every 30 minutes, with the page automatically refreshed every 10 minutes)

About weather observations | Map of weather stations | Latest weather observations for WA | Other Formats
Station Details ID: 009538 Name: DWELLINGUP Lat: -32.71 Lon: 116.06 Height: 267.0 m
Data from the previous 72 hours. | See also: Recent months at Dwellingup
Date/Time
WST
Temp
°C
App
Temp
°C
Dew
Point
°C
Rel
Hum
%
Delta-T
°C
Wind Press
QNH
hPa
Press
MSL
hPa
Rain since
9am
mm
Dir  Spd
km/h
Gust
km/h
Spd
kts
Gust
kts
24/10:30am 8.5 6.5 6.1 85 1.1 SE 6 11 3 6 1028.7 1029.0 0.0
24/10:00am 6.7 5.0 5.7 93 0.4 ESE 4 9 2 5 1028.8 1029.1 0.0
24/09:30am 4.8 2.1 3.9 94 0.4 ESE 7 11 4 6 1028.7 1029.0 0.0
24/09:00am 3.3 0.0 2.4 94 0.4 SE 9 13 5 7 1028.5 1028.8 1.8
24/08:30am 1.4 -2.2 0.5 94 0.3 SE 9 17 5 9 1028.2 1028.4 1.8
24/08:00am -0.3 -4.9 -1.3 93 0.3 SSE 13 13 7 7 1027.9 1028.1 1.8
24/07:30am -0.9 -5.2 -1.9 93 0.3 SSE 11 13 6 7 1027.5 1027.7 1.8
24/07:00am -0.7 -5.4 -1.7 93 0.3 SE 13 15 7 8 1026.9 1027.2 1.8
24/06:30am -0.6 -4.5 -1.6 93 0.3 SE 9 13 5 7 1026.7 1027.0 1.8
24/06:00am -0.5 -5.2 -1.5 93 0.3 SSE 13 15 7 8 1026.5 1026.8 1.8
24/05:30am -0.2 -5.6 -1.2 93 0.3 SE 17 19 9 10 1026.4 1026.7 1.8
24/05:00am -0.3 -4.9 -1.3 93 0.3 SE 13 15 7 8 1026.4 1026.7 1.8
24/04:30am -0.1 -4.7 -1.1 93 0.4 SE 13 15 7 8 1026.4 1026.7 1.8
24/04:00am 0.0 -4.6 -1.0 93 0.4 SSE 13 13 7 7 1026.4 1026.7 1.8
24/03:30am 0.4 -4.1 -0.6 93 0.4 SE 13 13 7 7 1026.4 1026.7 1.8
24/03:00am 0.6 -3.5 -0.4 93 0.4 SE 11 13 6 7 1026.5 1026.8 1.8
24/02:30am 1.0 -3.8 -0.1 92 0.4 SE 15 17 8 9 1026.6 1026.9 1.8
24/02:00am 1.4 -2.6 0.2 92 0.4 SE 11 15 6 8 1026.5 1026.8 1.8
24/01:30am 1.6 -2.4 0.4 92 0.5 ESE 11 13 6 7 1026.4 1026.7 1.8
24/01:00am 2.0 -2.3 0.8 92 0.5 SE 13 15 7 8 1026.3 1026.6 1.8
24/12:30am 1.8 -2.6 0.5 91 0.5 SE 13 17 7 9 1026.2 1026.5 1.8
24/12:00am 2.4 -1.9 1.1 91 0.5 SE 13 17 7 9 1026.4 1026.7 1.8
 
Date/Time
WST
Temp
°C
App
Temp
°C
Dew
Point
°C
Rel
Hum
%
Delta-T
°C
Wind Press
QNH
hPa
Press
MSL
hPa
Rain since
9am
mm
Dir  Spd
km/h
Gust
km/h
Spd
kts
Gust
kts
23/11:30pm 2.5 -1.8 1.2 91 0.5 SE 13 17 7 9 1026.5 1026.8 1.8
23/11:00pm 3.0 -1.2 1.7 91 0.5 SSE 13 17 7 9 1026.6 1026.9 1.8
23/10:30pm 3.2 -1.0 1.7 90 0.6 SSE 13 17 7 9 1026.4 1026.7 1.8
23/10:00pm 3.9 -0.2 2.1 88 0.7 SSE 13 17 7 9 1026.3 1026.6 1.8
23/09:30pm 4.8 0.4 2.5 85 0.9 SSE 15 20 8 11 1026.0 1026.3 1.8
23/09:00pm 5.8 1.4 2.6 80 1.3 SSE 15 20 8 11 1025.6 1025.9 1.8
23/08:30pm 7.0 2.6 2.9 75 1.7 SSE 15 20 8 11 1025.5 1025.8 1.8
23/08:00pm 7.1 2.4 3.0 75 1.7 S 17 28 9 15 1025.3 1025.6 1.8
23/07:30pm 6.4 1.7 3.4 81 1.3 S 17 28 9 15 1025.1 1025.3 1.8
23/07:00pm 7.0 2.4 3.8 80 1.4 S 17 24 9 13 1024.6 1024.8 1.6
23/06:30pm 7.8 3.6 3.7 75 1.8 S 15 20 8 11 1024.3 1024.5 1.6
23/06:00pm 9.2 4.6 3.6 68 2.5 S 17 26 9 14 1023.8 1024.0 1.6
23/05:30pm 9.8 5.6 4.0 67 2.6 S 15 19 8 10 1023.1 1023.4 1.6
23/05:00pm 11.0 7.6 3.8 61 3.2 SSW 11 15 6 8 1022.7 1023.0 1.6
23/04:30pm 11.4 7.5 3.4 58 3.6 SSW 13 22 7 12 1022.4 1022.7 1.6
23/04:00pm 11.8 8.4 3.8 58 3.6 SSW 11 20 6 11 1022.2 1022.5 1.6
23/03:30pm 12.2 7.8 4.9 61 3.4 SSW 17 32 9 17 1022.2 1022.5 1.6
23/03:00pm 11.9 7.7 5.5 65 3.0 SSW 17 32 9 17 1022.1 1022.3 1.6
23/02:30pm 11.8 7.2 6.3 69 2.6 SSW 20 33 11 18 1021.9 1022.1 1.6
23/02:00pm 12.1 8.4 7.8 75 2.1 SSW 17 26 9 14 1021.8 1022.0 1.6
23/01:30pm 11.7 7.4 8.0 78 1.8 SSW 20 35 11 19 1021.9 1022.1 1.6
23/01:00pm 11.7 8.3 9.3 85 1.2 SSW 17 35 9 19 1021.8 1022.0 1.6
23/12:30pm 11.1 8.1 9.2 88 1.0 W 15 33 8 18 1021.9 1022.1 1.6
23/12:00pm 11.4 9.2 9.5 88 1.0 WNW 11 20 6 11 1022.2 1022.5 1.0
23/11:30am 10.7 7.8 8.3 85 1.2 WSW 13 20 7 11 1022.8 1023.1 0.8
23/11:00am 11.8 10.3 9.0 83 1.4 NW 7 13 4 7 1022.7 1023.0 0.6
23/10:30am 11.0 8.5 9.6 91 0.7 NW 13 20 7 11 1022.9 1023.2 0.6
23/10:00am 9.5 7.0 8.3 92 0.6 NW 11 20 6 11 1023.1 1023.4 0.6
23/09:30am 9.3 8.1 8.1 92 0.6 WNW 4 9 2 5 1023.0 1023.3 0.0
23/09:00am 9.2 6.7 8.1 93 0.5 WNW 11 19 6 10 1023.0 1023.3 0.4
23/08:30am 7.5 5.0 6.6 94 0.4 NW 9 13 5 7 1022.7 1023.0 0.2
23/08:00am 6.3 3.9 5.4 94 0.4 NW 7 9 4 5 1022.6 1022.9 0.2
23/07:30am 5.9 3.4 5.0 94 0.4 NNW 7 9 4 5 1022.4 1022.7 0.2
23/07:00am 5.6 2.3 4.6 93 0.4 NNW 11 13 6 7 1022.4 1022.7 0.2
23/06:30am 5.6 2.3 4.6 93 0.4 NW 11 17 6 9 1022.4 1022.7 0.2
23/06:00am 5.2 2.2 4.2 93 0.4 WNW 9 13 5 7 1022.4 1022.7 0.0
23/05:30am 5.2 1.8 4.2 93 0.4 NW 11 17 6 9 1022.4 1022.7 0.0
23/05:00am 4.7 1.6 3.7 93 0.4 NW 9 11 5 6 1022.3 1022.6 0.0
23/04:30am 4.4 0.9 3.4 93 0.4 NW 11 15 6 8 1022.3 1022.6 0.0
23/04:00am 4.7 1.2 3.7 93 0.4 NW 11 13 6 7 1022.3 1022.6 0.0
23/03:30am 5.5 2.6 4.5 93 0.4 NW 9 11 5 6 1022.9 1023.2 0.0
23/03:00am 5.5 2.6 4.5 93 0.4 NNW 9 11 5 6 1023.0 1023.3 0.0
23/02:30am 5.5 2.6 4.5 93 0.4 N 9 9 5 5 1023.1 1023.4 0.0
23/02:00am 5.4 2.8 4.4 93 0.4 NNE 7 9 4 5 1023.1 1023.4 0.0
23/01:30am 5.5 3.0 4.5 93 0.4 NE 7 13 4 7 1023.0 1023.3 0.0
23/01:00am 5.3 2.3 4.3 93 0.4 NE 9 13 5 7 1023.0 1023.3 0.0
23/12:30am 5.0 3.3 4.0 93 0.4 ENE 2 9 1 5 1023.3 1023.6 0.0
23/12:00am 4.9 1.9 3.9 93 0.4 E 9 15 5 8 1023.3 1023.6 0.0
 
Date/Time
WST
Temp
°C
App
Temp
°C
Dew
Point
°C
Rel
Hum
%
Delta-T
°C
Wind Press
QNH
hPa
Press
MSL
hPa
Rain since
9am
mm
Dir  Spd
km/h
Gust
km/h
Spd
kts
Gust
kts
22/11:30pm 4.6 1.1 3.6 93 0.4 E 11 15 6 8 1023.7 1023.9 0.0
22/11:00pm 4.0 0.8 2.8 92 0.5 E 9 13 5 7 1023.9 1024.1 0.0
22/10:30pm 3.4 -0.7 2.2 92 0.5 ESE 13 15 7 8 1023.8 1024.0 0.0
22/10:00pm 3.9 0.3 2.7 92 0.5 ESE 11 13 6 7 1024.0 1024.2 0.0
22/09:30pm 4.2 1.0 2.9 91 0.5 SE 9 11 5 6 1024.0 1024.2 0.0
22/09:00pm 4.8 1.3 3.5 91 0.5 S 11 13 6 7 1024.1 1024.3 0.0
22/08:30pm 4.9 1.4 3.4 90 0.6 S 11 11 6 6 1024.1 1024.3 0.0
22/08:00pm 5.5 2.4 3.8 89 0.7 S 9 11 5 6 1024.1 1024.3 0.0
22/07:30pm 6.0 2.6 4.0 87 0.9 SSW 11 15 6 8 1024.1 1024.3 0.0
22/07:00pm 6.5 2.8 4.3 86 1.0 SSW 13 17 7 9 1023.8 1024.0 0.0
22/06:30pm 7.1 3.4 4.6 84 1.1 SW 13 19 7 10 1023.6 1023.8 0.0
22/06:00pm 8.3 4.7 4.9 79 1.5 SW 13 17 7 9 1023.3 1023.6 0.0
22/05:30pm 9.4 6.0 4.2 70 2.3 WSW 11 13 6 7 1023.0 1023.3 0.0
22/05:00pm 10.3 7.4 4.5 67 2.6 SW 9 15 5 8 1022.9 1023.2 0.0
22/04:30pm 10.9 8.3 4.4 64 3.0 SSE 7 9 4 5 1022.9 1023.2 0.0
22/04:00pm 10.9 8.4 4.6 65 2.9 S 7 11 4 6 1022.9 1023.2 0.0
22/03:30pm 11.1 8.6 4.6 64 3.0 S 7 11 4 6 1023.0 1023.3 0.0
22/03:00pm 11.2 9.4 3.7 60 3.4 SE 2 7 1 4 1022.9 1023.2 0.0
22/02:30pm 12.0 8.9 3.8 57 3.7 S 9 13 5 7 1022.9 1023.2 0.0
22/02:00pm 11.3 8.1 2.9 56 3.7 SSE 9 13 5 7 1023.0 1023.3 0.0
22/01:30pm 12.4 9.2 3.1 53 4.2 SSW 9 17 5 9 1023.0 1023.3 0.0
22/01:00pm 11.5 7.9 2.8 55 3.8 S 11 17 6 9 1023.4 1023.7 0.0
22/12:30pm 11.2 7.2 2.8 56 3.7 S 13 19 7 10 1023.3 1023.6 0.0
22/12:00pm 11.7 9.1 4.2 60 3.4 S 7 17 4 9 1023.6 1023.8 0.0
22/11:30am 10.3 7.1 2.9 60 3.2 ESE 9 13 5 7 1024.0 1024.2 0.0
22/11:00am 11.0 8.0 4.2 63 3.1 S 9 17 5 9 1024.1 1024.3 0.0
22/10:30am 9.8 7.0 3.3 64 2.9 ESE 7 13 4 7 1024.1 1024.3 0.0
22/10:00am 9.0 6.3 3.6 69 2.4 SE 7 11 4 6 1024.0 1024.2 0.0
22/09:30am 8.2 5.2 4.2 76 1.8 SSE 9 13 5 7 1023.6 1023.8 0.0
22/09:00am 7.6 5.0 5.9 89 0.8 SSE 9 15 5 8 1022.9 1023.2 8.6
22/08:30am 5.5 2.6 4.5 93 0.4 SSE 9 11 5 6 1022.3 1022.6 8.6
22/08:00am 3.3 -0.4 2.1 92 0.5 SSE 11 13 6 7 1021.8 1022.0 8.6
22/07:30am 3.2 -1.0 1.9 91 0.5 SSE 13 17 7 9 1021.4 1021.6 8.6
22/07:00am 3.5 -0.6 2.2 91 0.5 SSE 13 17 7 9 1021.0 1021.2 8.4
22/06:30am 3.9 -0.6 2.4 90 0.6 S 15 20 8 11 1020.8 1021.0 8.4
22/06:00am 4.1 -0.3 2.5 89 0.7 S 15 22 8 12 1020.4 1020.6 8.4
22/05:30am 4.5 0.1 2.7 88 0.7 S 15 24 8 13 1019.9 1020.1 8.4
22/05:00am 5.4 1.5 3.4 87 0.8 S 13 19 7 10 1019.7 1019.9 8.4
22/04:30am 5.5 1.2 3.2 85 1.0 SSW 15 20 8 11 1019.4 1019.7 8.4
22/04:00am 6.4 1.8 3.9 84 1.1 SSW 17 28 9 15 1019.2 1019.5 8.4
22/03:30am 6.9 2.7 4.0 82 1.3 SSW 15 26 8 14 1018.7 1018.9 8.4
22/03:00am 7.0 3.0 4.8 86 1.0 SSW 15 28 8 15 1018.6 1018.8 8.4
22/02:30am 7.5 4.0 5.5 87 0.9 SSW 13 19 7 10 1018.6 1018.8 8.4
22/02:00am 8.1 3.4 5.2 82 1.3 SSW 19 33 10 18 1018.5 1018.7 8.0
22/01:30am 8.2 4.6 5.1 81 1.4 SSW 13 20 7 11 1017.9 1018.1 7.8
22/01:00am 8.7 4.5 5.6 81 1.4 SSW 17 30 9 16 1017.4 1017.6 7.8
22/12:30am 8.7 4.9 6.0 83 1.3 SW 15 28 8 15 1017.1 1017.3 7.8
22/12:00am 9.2 4.9 6.8 85 1.1 SSW 19 33 10 18 1016.8 1017.0 7.8
 
Date/Time
WST
Temp
°C
App
Temp
°C
Dew
Point
°C
Rel
Hum
%
Delta-T
°C
Wind Press
QNH
hPa
Press
MSL
hPa
Rain since
9am
mm
Dir  Spd
km/h
Gust
km/h
Spd
kts
Gust
kts
21/11:30pm 9.3 5.0 7.1 86 1.1 SW 19 32 10 17 1016.4 1016.6 7.8
21/11:00pm 9.5 5.1 7.4 87 1.0 SW 20 37 11 20 1016.1 1016.3 7.8
21/10:30pm 9.8 6.3 7.4 85 1.2 WSW 15 24 8 13 1015.7 1015.8 7.8
21/10:00pm 9.8 5.4 7.4 85 1.2 WSW 20 33 11 18 1015.4 1015.6 7.4
21/09:30pm 9.7 5.3 7.3 85 1.2 WSW 20 37 11 20 1015.0 1015.2 7.4
21/09:00pm 9.6 5.9 8.0 90 0.8 WSW 17 33 9 18 1014.6 1014.8 7.4
21/08:30pm 9.7 6.1 8.5 92 0.6 W 17 28 9 15 1014.2 1014.4 7.4
21/08:00pm 9.3 6.4 8.1 92 0.6 W 13 20 7 11 1013.9 1014.1 6.0
21/07:30pm 9.2 5.8 7.8 91 0.7 W 15 32 8 17 1013.4 1013.6 4.8
21/07:00pm 8.6 4.1 7.1 90 0.7 W 20 35 11 19 1013.0 1013.2 4.8
21/06:30pm 8.9 4.0 7.0 88 0.9 W 22 37 12 20 1012.8 1013.0 3.8
21/06:00pm 9.6 4.9 7.9 89 0.8 WNW 22 41 12 22 1012.1 1012.2 1.0
21/05:30pm 9.6 5.3 7.9 89 0.8 WNW 20 35 11 19 1012.0 1012.1 0.8
21/05:00pm 10.0 4.6 6.5 79 1.7 WNW 24 44 13 24 1011.8 1011.9 0.2
21/04:41pm 10.5 4.3 6.3 75 2.0 WNW 28 56 15 30 1011.9 1012.0 0.2
21/04:30pm 10.6 5.5 5.8 72 2.3 WNW 22 37 12 20 1011.6 1011.8 0.2
21/04:00pm 10.8 5.1 4.7 66 2.8 WNW 24 37 13 20 1011.6 1011.8 0.0
21/03:30pm 10.4 5.4 4.8 68 2.6 WNW 20 37 11 20 1011.8 1011.9 0.0
21/03:00pm 10.6 5.6 4.7 67 2.7 WNW 20 43 11 23 1011.9 1012.0 0.0
21/02:30pm 11.1 5.5 3.6 60 3.4 W 22 33 12 18 1012.0 1012.1 0.0
21/02:00pm 11.7 6.3 2.2 52 4.2 WSW 20 35 11 19 1011.8 1011.9 0.0
21/01:30pm 11.7 5.4 1.4 49 4.4 W 24 48 13 26 1011.9 1012.0 0.0
21/01:00pm 11.1 5.5 3.2 58 3.5 W 22 37 12 20 1011.9 1012.0 0.0
21/12:30pm 11.5 6.7 4.9 64 3.1 W 19 32 10 17 1012.0 1012.1 0.0
21/12:00pm 10.9 7.6 6.5 74 2.1 WSW 13 28 7 15 1012.2 1012.3 0.0
21/11:30am 9.6 6.2 6.0 78 1.7 WSW 13 20 7 11 1012.4 1012.5 0.0
21/11:00am 11.2 7.0 5.7 69 2.6 WSW 17 30 9 16 1012.2 1012.3 0.0

Other Formats:

Comma delimited format used in spreadsheet applications
http://www.bom.gov.au/fwo/IDW60801/IDW60801.94620.axf

JavaScript Object Notation format (JSON) in row-major order
http://www.bom.gov.au/fwo/IDW60801/IDW60801.94620.json